createdAt,value
2023-03-06T00:01:53.269Z,22.91
2023-03-06T00:05:53.450Z,22.91
2023-03-06T00:09:53.447Z,22.89
2023-03-06T00:13:53.536Z,22.89
2023-03-06T00:17:53.512Z,22.88
2023-03-06T00:21:53.545Z,22.87
2023-03-06T00:25:53.540Z,22.87
2023-03-06T00:29:53.561Z,22.86
2023-03-06T00:33:53.591Z,22.85
2023-03-06T00:37:53.617Z,22.85
2023-03-06T00:41:53.585Z,22.84
2023-03-06T00:45:53.674Z,22.82
2023-03-06T00:49:53.632Z,22.82
2023-03-06T00:53:53.670Z,22.82
2023-03-06T00:57:53.648Z,22.81
2023-03-06T01:01:53.699Z,22.79
2023-03-06T01:05:53.614Z,22.79
2023-03-06T01:09:53.557Z,22.78
2023-03-06T01:13:53.526Z,22.78
2023-03-06T01:17:53.487Z,22.76
2023-03-06T01:21:53.444Z,22.76
2023-03-06T01:25:53.400Z,22.75
2023-03-06T01:29:53.354Z,22.74
2023-03-06T01:33:53.326Z,22.73
2023-03-06T01:37:53.335Z,22.73
2023-03-06T01:41:53.251Z,22.73
2023-03-06T01:45:53.254Z,22.73
2023-03-06T01:49:53.196Z,22.71
2023-03-06T01:53:53.223Z,22.70
2023-03-06T01:57:53.242Z,22.69
2023-03-06T02:01:53.320Z,22.69
2023-03-06T02:05:53.345Z,22.68
2023-03-06T02:09:53.463Z,22.67
2023-03-06T02:13:53.395Z,22.66
2023-03-06T02:17:53.361Z,22.66
2023-03-06T02:21:53.337Z,22.65
2023-03-06T02:25:53.286Z,22.64
2023-03-06T02:29:53.232Z,22.64
2023-03-06T02:33:53.211Z,22.63
2023-03-06T02:37:53.173Z,22.63
2023-03-06T02:41:53.138Z,22.62
2023-03-06T02:45:53.159Z,22.62
2023-03-06T02:49:53.065Z,22.62
2023-03-06T02:53:53.036Z,22.61
2023-03-06T02:57:52.979Z,22.60
2023-03-06T03:01:53.050Z,22.59
2023-03-06T03:05:52.933Z,22.58
2023-03-06T03:09:52.840Z,22.58
2023-03-06T03:13:52.861Z,22.57
2023-03-06T03:17:52.799Z,22.57
2023-03-06T03:21:52.788Z,22.56
2023-03-06T03:25:52.732Z,22.57
2023-03-06T03:29:52.696Z,22.55
2023-03-06T03:33:52.675Z,22.54
2023-03-06T03:37:52.773Z,22.54
2023-03-06T03:41:52.878Z,22.53
2023-03-06T03:45:52.975Z,22.52
2023-03-06T03:49:53.038Z,22.52
2023-03-06T03:53:53.138Z,22.52
2023-03-06T03:57:53.262Z,22.50
2023-03-06T04:01:53.412Z,22.50
2023-03-06T04:05:53.499Z,22.50
2023-03-06T04:09:53.550Z,22.49
2023-03-06T04:13:53.629Z,22.49
2023-03-06T04:17:53.759Z,22.48
2023-03-06T04:21:53.865Z,22.48
2023-03-06T04:25:53.953Z,22.47
2023-03-06T04:29:54.084Z,22.46
2023-03-06T04:33:54.207Z,22.45
2023-03-06T04:37:54.322Z,22.45
2023-03-06T04:41:54.436Z,22.44
2023-03-06T04:45:54.569Z,22.44
2023-03-06T04:49:54.774Z,22.44
2023-03-06T04:53:54.745Z,22.42
2023-03-06T04:57:54.910Z,22.42
2023-03-06T05:01:55.057Z,22.42
2023-03-06T05:05:55.159Z,22.43
2023-03-06T05:09:55.280Z,22.41
2023-03-06T05:13:55.366Z,22.36
2023-03-06T05:17:55.471Z,22.33
2023-03-06T05:21:55.559Z,22.29
2023-03-06T05:25:55.648Z,22.29
2023-03-06T05:29:55.808Z,22.30
2023-03-06T05:33:55.936Z,22.29
2023-03-06T05:37:56.098Z,22.30
2023-03-06T05:41:56.215Z,22.31
2023-03-06T05:45:56.425Z,22.30
2023-03-06T05:49:56.523Z,22.31
2023-03-06T05:53:56.698Z,22.32
2023-03-06T05:57:56.791Z,22.34
2023-03-06T06:01:57.042Z,22.34
2023-03-06T06:05:57.087Z,22.36
2023-03-06T06:09:57.215Z,22.36
2023-03-06T06:13:57.365Z,22.36
2023-03-06T06:17:57.525Z,22.37
2023-03-06T06:21:57.572Z,22.38
2023-03-06T06:25:57.719Z,22.40
2023-03-06T06:29:57.897Z,22.41
2023-03-06T06:33:57.892Z,22.45
2023-03-06T06:37:57.999Z,22.65
2023-03-06T06:42:15.463Z,22.87
2023-03-06T06:46:18.760Z,22.98
2023-03-06T06:49:59.046Z,23.03
2023-03-06T06:53:58.068Z,23.02
2023-03-06T06:57:57.990Z,23.06
2023-03-06T07:01:58.007Z,23.09
2023-03-06T07:05:57.878Z,23.15
2023-03-06T07:09:57.898Z,23.21
2023-03-06T07:13:57.816Z,23.27
2023-03-06T07:17:57.900Z,23.32
2023-03-06T07:21:57.852Z,23.38
2023-03-06T07:25:57.906Z,23.42
2023-03-06T07:29:57.970Z,23.45
2023-03-06T07:33:58.028Z,23.49
2023-03-06T07:37:58.052Z,23.55
2023-03-06T07:41:58.112Z,23.55
2023-03-06T07:45:59.958Z,23.55
2023-03-06T07:49:58.133Z,23.55
2023-03-06T07:53:58.181Z,23.58
2023-03-06T07:57:58.269Z,23.59
2023-03-06T08:01:58.286Z,23.58
2023-03-06T08:05:58.390Z,23.53
2023-03-06T08:09:58.461Z,23.50
2023-03-06T08:13:58.525Z,23.47
2023-03-06T08:17:58.578Z,23.47
2023-03-06T08:21:58.657Z,23.47
2023-03-06T08:25:58.716Z,23.47
2023-03-06T08:29:58.746Z,23.54
2023-03-06T08:33:58.946Z,23.50
2023-03-06T08:37:58.989Z,23.25
2023-03-06T08:41:59.495Z,23.30
2023-03-06T08:45:58.919Z,23.43
2023-03-06T08:50:00.598Z,23.54
2023-03-06T08:57:12.802Z,23.77
2023-03-06T09:01:12.807Z,23.77
2023-03-06T09:05:12.758Z,23.77
2023-03-06T09:09:12.708Z,23.76
2023-03-06T09:13:12.665Z,23.81
2023-03-06T09:17:12.633Z,23.85
2023-03-06T09:21:12.550Z,23.91
2023-03-06T09:25:12.536Z,23.84
2023-03-06T09:29:12.562Z,23.08
2023-03-06T09:33:12.474Z,21.45
2023-03-06T09:37:12.435Z,20.57
2023-03-06T09:41:12.869Z,20.30
2023-03-06T09:45:12.391Z,20.47
2023-03-06T09:49:12.855Z,21.34
2023-03-06T09:53:12.254Z,21.97
2023-03-06T09:57:12.248Z,22.44
2023-03-06T10:01:12.176Z,22.71
2023-03-06T10:05:12.954Z,22.89
2023-03-06T10:09:12.844Z,23.10
2023-03-06T10:13:12.669Z,23.34
2023-03-06T10:17:12.827Z,23.58
2023-03-06T10:21:19.125Z,23.75
2023-03-06T10:25:13.878Z,23.86
2023-03-06T10:29:12.851Z,23.97
2023-03-06T10:33:12.873Z,24.02
2023-03-06T10:37:12.881Z,24.11
2023-03-06T10:41:12.826Z,24.17
2023-03-06T10:45:12.803Z,24.25
2023-03-06T10:49:12.760Z,24.31
2023-03-06T10:53:12.687Z,24.39
2023-03-06T10:57:12.646Z,24.43
2023-03-06T11:01:12.649Z,24.47
2023-03-06T11:05:12.605Z,24.51
2023-03-06T11:09:23.268Z,24.52
2023-03-06T11:13:12.559Z,24.53
2023-03-06T11:17:12.478Z,24.57
2023-03-06T11:21:12.474Z,24.63
2023-03-06T11:25:12.544Z,24.28
2023-03-06T11:29:14.187Z,23.61
2023-03-06T11:33:20.466Z,23.29
2023-03-06T11:37:12.411Z,23.02
2023-03-06T11:41:12.394Z,22.95
2023-03-06T11:45:12.358Z,23.21
2023-03-06T11:49:12.520Z,23.50
2023-03-06T11:53:12.682Z,23.77
2023-03-06T11:57:12.745Z,23.97
2023-03-06T12:01:12.778Z,24.09
2023-03-06T12:05:12.844Z,24.19
2023-03-06T12:09:12.996Z,24.33
2023-03-06T12:13:13.340Z,24.44
2023-03-06T12:17:13.411Z,24.49
2023-03-06T12:21:13.587Z,24.51
2023-03-06T12:25:13.828Z,24.47
2023-03-06T12:29:13.985Z,24.46
2023-03-06T12:33:14.232Z,24.50
2023-03-06T12:37:14.197Z,24.48
2023-03-06T12:41:14.146Z,24.46
2023-03-06T12:45:14.080Z,24.44
2023-03-06T12:49:23.027Z,24.36
2023-03-06T12:53:15.064Z,24.35
2023-03-06T12:57:13.976Z,24.26
2023-03-06T13:01:14.020Z,23.89
2023-03-06T13:05:14.516Z,23.90
2023-03-06T13:09:14.256Z,24.10
2023-03-06T13:13:14.286Z,24.22
2023-03-06T13:17:14.473Z,24.31
2023-03-06T13:21:14.441Z,24.44
2023-03-06T13:25:14.377Z,24.52
2023-03-06T13:29:14.296Z,24.45
2023-03-06T13:33:14.326Z,24.38
2023-03-06T13:37:14.273Z,24.36
2023-03-06T13:41:14.475Z,24.09
2023-03-06T13:45:14.256Z,23.30
2023-03-06T13:49:14.183Z,22.99
2023-03-06T13:53:14.155Z,23.10
2023-03-06T13:57:14.067Z,23.28
2023-03-06T14:01:14.102Z,23.44
2023-03-06T14:05:14.047Z,23.17
2023-03-06T14:09:14.013Z,22.19
2023-03-06T14:13:13.935Z,22.52
2023-03-06T14:17:13.889Z,22.91
2023-03-06T14:21:13.833Z,23.25
2023-03-06T14:25:14.123Z,23.52
2023-03-06T14:29:14.243Z,23.74
2023-03-06T14:33:14.312Z,23.88
2023-03-06T14:37:14.394Z,23.96
2023-03-06T14:41:14.428Z,24.06
2023-03-06T14:45:14.409Z,24.11
2023-03-06T14:49:14.414Z,24.11
2023-03-06T14:53:14.368Z,24.10
2023-03-06T14:57:14.372Z,24.10
2023-03-06T15:01:14.372Z,24.10
2023-03-06T15:05:15.015Z,24.06
2023-03-06T15:09:14.425Z,24.02
2023-03-06T15:13:14.488Z,24.00
2023-03-06T15:17:14.509Z,23.99
2023-03-06T15:21:14.598Z,23.96
2023-03-06T15:25:14.625Z,23.93
2023-03-06T15:29:14.682Z,23.93
2023-03-06T15:33:14.777Z,23.92
2023-03-06T15:37:14.928Z,23.92
2023-03-06T15:41:14.894Z,23.92
2023-03-06T15:45:15.024Z,23.90
2023-03-06T15:49:15.052Z,23.89
2023-03-06T15:53:15.120Z,23.89
2023-03-06T15:57:15.260Z,23.88
2023-03-06T16:01:15.340Z,23.87
2023-03-06T16:05:15.353Z,23.86
2023-03-06T16:09:15.446Z,23.84
2023-03-06T16:13:15.563Z,23.81
2023-03-06T16:17:15.693Z,23.80
2023-03-06T16:21:15.771Z,23.78
2023-03-06T16:25:15.855Z,23.76
2023-03-06T16:29:15.938Z,23.75
2023-03-06T16:33:16.108Z,23.74
2023-03-06T16:37:16.237Z,23.73
2023-03-06T16:41:16.302Z,23.71
2023-03-06T16:45:16.443Z,23.68
2023-03-06T16:49:16.617Z,23.67
2023-03-06T16:53:16.771Z,23.66
2023-03-06T16:57:16.894Z,23.64
2023-03-06T17:01:17.088Z,23.62
2023-03-06T17:05:17.257Z,23.61
2023-03-06T17:09:17.391Z,23.59
2023-03-06T17:13:17.557Z,23.59
2023-03-06T17:17:17.749Z,23.57
2023-03-06T17:21:17.876Z,23.56
2023-03-06T17:25:18.058Z,23.55
2023-03-06T17:29:18.261Z,23.54
2023-03-06T17:33:18.413Z,23.53
2023-03-06T17:37:18.662Z,23.53
2023-03-06T17:41:18.774Z,23.54
2023-03-06T17:45:18.969Z,23.52
2023-03-06T17:49:19.191Z,23.50
2023-03-06T17:53:19.319Z,23.50
2023-03-06T17:57:19.551Z,23.48
2023-03-06T18:01:19.839Z,23.47
2023-03-06T18:05:20.013Z,23.45
2023-03-06T18:09:20.247Z,23.45
2023-03-06T18:13:20.428Z,23.44
2023-03-06T18:17:20.654Z,23.43
2023-03-06T18:21:20.840Z,23.42
2023-03-06T18:25:20.870Z,23.40
2023-03-06T18:29:20.794Z,23.39
2023-03-06T18:33:20.762Z,23.38
2023-03-06T18:37:20.794Z,23.37
2023-03-06T18:41:20.671Z,23.36
2023-03-06T18:45:20.652Z,23.36
2023-03-06T18:49:20.620Z,23.36
2023-03-06T18:53:20.559Z,23.36
2023-03-06T18:57:20.513Z,23.33
2023-03-06T19:01:20.629Z,23.33
2023-03-06T19:05:20.597Z,23.30
2023-03-06T19:09:20.556Z,23.28
2023-03-06T19:13:20.499Z,23.26
2023-03-06T19:17:20.466Z,23.25
2023-03-06T19:21:20.453Z,23.21
2023-03-06T19:25:20.438Z,23.18
2023-03-06T19:29:20.429Z,23.17
2023-03-06T19:33:20.322Z,23.13
2023-03-06T19:37:20.310Z,23.13
2023-03-06T19:41:20.276Z,23.13
2023-03-06T19:45:20.237Z,23.15
2023-03-06T19:49:20.145Z,23.15
2023-03-06T19:53:20.139Z,23.15
2023-03-06T19:57:20.140Z,23.15
2023-03-06T20:01:20.144Z,23.14
2023-03-06T20:05:20.051Z,23.13
2023-03-06T20:09:19.982Z,23.13
2023-03-06T20:13:19.969Z,23.14
2023-03-06T20:17:19.932Z,23.11
2023-03-06T20:21:19.886Z,23.11
2023-03-06T20:25:19.864Z,23.11
2023-03-06T20:29:19.913Z,23.10
2023-03-06T20:33:19.894Z,23.09
2023-03-06T20:37:19.923Z,23.09
2023-03-06T20:41:19.881Z,23.08
2023-03-06T20:45:19.975Z,23.07
2023-03-06T20:49:19.966Z,23.08
2023-03-06T20:53:19.989Z,23.07
2023-03-06T20:57:19.960Z,23.06
2023-03-06T21:01:20.066Z,23.06
2023-03-06T21:05:20.017Z,23.05
2023-03-06T21:09:20.077Z,23.04
2023-03-06T21:13:20.015Z,23.03
2023-03-06T21:17:20.094Z,23.01
2023-03-06T21:21:20.133Z,23.02
2023-03-06T21:25:20.164Z,23.01
2023-03-06T21:29:20.121Z,23.01
2023-03-06T21:33:20.108Z,23.01
2023-03-06T21:37:20.128Z,23.00
2023-03-06T21:41:20.112Z,22.99
2023-03-06T21:45:20.135Z,22.98
2023-03-06T21:49:20.113Z,22.97
2023-03-06T21:53:20.081Z,22.95
2023-03-06T21:57:20.096Z,22.95
2023-03-06T22:01:20.250Z,22.94
2023-03-06T22:05:20.148Z,22.93
2023-03-06T22:09:20.240Z,22.91
2023-03-06T22:13:20.178Z,22.91
2023-03-06T22:17:20.217Z,22.91
2023-03-06T22:21:20.230Z,22.91
2023-03-06T22:25:20.264Z,22.88
2023-03-06T22:29:20.281Z,22.87
2023-03-06T22:33:20.357Z,22.87
2023-03-06T22:37:20.366Z,22.87
2023-03-06T22:41:20.463Z,22.86
2023-03-06T22:45:20.600Z,22.85
2023-03-06T22:49:20.547Z,22.83
2023-03-06T22:53:20.636Z,22.82
2023-03-06T22:57:20.675Z,22.82
2023-03-06T23:01:20.973Z,22.82
2023-03-06T23:05:20.943Z,22.81
2023-03-06T23:09:20.969Z,22.79
2023-03-06T23:13:21.098Z,22.80
2023-03-06T23:17:21.006Z,22.78
2023-03-06T23:21:21.046Z,22.78
2023-03-06T23:25:21.026Z,22.76
2023-03-06T23:29:21.103Z,22.76
2023-03-06T23:33:21.175Z,22.75
2023-03-06T23:37:21.149Z,22.74
2023-03-06T23:41:21.163Z,22.75
2023-03-06T23:45:21.262Z,22.73
2023-03-06T23:49:22.033Z,22.72
2023-03-06T23:53:21.273Z,22.71
2023-03-06T23:57:21.297Z,22.71
